createdAt,value
2023-04-09T00:01:53.000Z,0
2023-04-09T00:07:58.154Z,0
2023-04-09T00:12:00.902Z,0
2023-04-09T00:14:02.628Z,0
2023-04-09T00:18:05.938Z,0
2023-04-09T00:22:08.929Z,0
2023-04-09T00:24:10.612Z,0
2023-04-09T00:28:14.141Z,0
2023-04-09T00:34:18.905Z,1.544
2023-04-09T00:38:21.824Z,0.561
2023-04-09T00:40:23.383Z,1.123
2023-04-09T00:44:26.086Z,0
2023-04-09T00:50:30.856Z,1.123
2023-04-09T00:54:34.119Z,1.544
2023-04-09T00:56:35.389Z,1.544
2023-04-09T01:00:38.372Z,0
2023-04-09T01:04:41.066Z,0
2023-04-09T01:06:42.277Z,0
2023-04-09T01:10:45.086Z,0
2023-04-09T01:16:49.681Z,1.684
2023-04-09T01:20:52.569Z,0
2023-04-09T01:22:53.891Z,0
2023-04-09T01:26:56.662Z,1.263
2023-04-09T01:33:01.317Z,1.825
2023-04-09T01:39:05.829Z,0
2023-04-09T01:43:08.794Z,0
2023-04-09T01:49:12.408Z,0
2023-04-09T01:53:14.957Z,0
2023-04-09T01:55:16.223Z,0
2023-04-09T01:59:18.700Z,0
2023-04-09T02:03:22.549Z,0
2023-04-09T02:05:24.174Z,0
2023-04-09T02:09:26.552Z,0
2023-04-09T02:15:31.775Z,0
2023-04-09T02:21:35.914Z,0
2023-04-09T02:25:38.704Z,0
2023-04-09T02:31:43.156Z,0
2023-04-09T02:35:46.442Z,0
2023-04-09T02:37:48.154Z,0
2023-04-09T02:41:51.122Z,0
2023-04-09T02:45:54.081Z,0
2023-04-09T02:47:55.493Z,0
2023-04-09T02:51:57.785Z,0
2023-04-09T02:58:02.779Z,0
2023-04-09T03:04:07.230Z,0
2023-04-09T03:08:10.057Z,0
2023-04-09T03:14:14.507Z,0
2023-04-09T03:18:18.045Z,0
2023-04-09T03:20:19.524Z,0
2023-04-09T03:24:23.112Z,0
2023-04-09T03:28:26.244Z,0
2023-04-09T03:30:27.523Z,0
2023-04-09T03:34:29.644Z,0
2023-04-09T03:40:34.046Z,0
2023-04-09T03:44:37.346Z,0
2023-04-09T03:46:48.915Z,0
2023-04-09T03:50:41.387Z,0
2023-04-09T03:56:45.974Z,0.702
2023-04-09T04:00:48.930Z,0
2023-04-09T04:02:51.013Z,0
2023-04-09T04:06:53.771Z,0
2023-04-09T04:10:56.811Z,0
2023-04-09T04:12:58.244Z,0
2023-04-09T04:17:00.767Z,0
2023-04-09T04:23:04.532Z,0
2023-04-09T04:27:07.748Z,0
2023-04-09T04:29:08.846Z,0
2023-04-09T04:33:11.307Z,0
2023-04-09T04:39:15.334Z,0
2023-04-09T04:41:16.503Z,0
2023-04-09T04:45:19.163Z,0
2023-04-09T04:49:22.367Z,0
2023-04-09T04:55:26.801Z,0
2023-04-09T04:59:30.552Z,0
2023-04-09T05:03:34.336Z,0
2023-04-09T05:05:35.550Z,0
2023-04-09T05:09:38.740Z,0
2023-04-09T05:11:39.830Z,0
2023-04-09T05:13:41.616Z,0
2023-04-09T05:15:42.635Z,0
2023-04-09T05:21:47.408Z,0
2023-04-09T05:27:50.564Z,0
2023-04-09T05:31:53.034Z,0
2023-04-09T05:37:57.783Z,0
2023-04-09T05:41:59.755Z,0
2023-04-09T05:44:01.099Z,0
2023-04-09T05:48:03.682Z,0
2023-04-09T05:52:06.526Z,0
2023-04-09T05:54:08.333Z,0
2023-04-09T05:58:11.024Z,0
2023-04-09T06:04:15.344Z,0
2023-04-09T06:08:17.886Z,0.14
2023-04-09T06:10:19.363Z,0
2023-04-09T06:14:21.555Z,3.369
2023-04-09T06:20:25.690Z,4.773
2023-04-09T06:24:28.785Z,6.739
2023-04-09T06:25:12.535Z,5.335
2023-04-09T06:29:15.671Z,3.369
2023-04-09T06:31:16.935Z,4.071
2023-04-09T06:35:20.141Z,4.773
2023-04-09T06:39:22.972Z,4.071
2023-04-09T06:41:33.648Z,1.263
2023-04-09T06:45:27.512Z,2.948
2023-04-09T06:47:29.202Z,4.071
2023-04-09T06:49:30.261Z,5.616
2023-04-09T06:51:31.796Z,5.896
2023-04-09T06:57:36.069Z,6.177
2023-04-09T06:59:37.162Z,5.335
2023-04-09T07:03:40.409Z,7.441
2023-04-09T07:07:53.049Z,5.756
2023-04-09T07:13:47.071Z,5.054
2023-04-09T07:17:50.729Z,5.475
2023-04-09T07:23:54.546Z,7.3
2023-04-09T07:27:56.739Z,3.229
2023-04-09T07:29:58.029Z,2.948
2023-04-09T07:34:00.804Z,9.266
2023-04-09T07:40:05.561Z,8.424
2023-04-09T07:46:10.132Z,6.739
2023-04-09T07:50:12.349Z,3.51
2023-04-09T07:56:17.234Z,3.369
2023-04-09T08:00:20.018Z,3.369
2023-04-09T08:02:21.106Z,8.704
2023-04-09T08:06:23.473Z,4.633
2023-04-09T08:12:27.972Z,11.232
2023-04-09T08:16:29.888Z,7.581
2023-04-09T08:22:35.667Z,5.335
2023-04-09T08:26:37.599Z,5.896
2023-04-09T08:28:39.076Z,6.458
2023-04-09T08:32:41.225Z,8.283
2023-04-09T08:38:45.411Z,4.633
2023-04-09T08:42:47.944Z,9.687
2023-04-09T08:44:48.940Z,8.424
2023-04-09T08:48:51.678Z,4.773
2023-04-09T08:52:53.945Z,4.071
2023-04-09T08:54:55.078Z,6.739
2023-04-09T08:58:58.208Z,9.126
2023-04-09T09:03:01.524Z,8.143
2023-04-09T09:05:02.267Z,8.143
2023-04-09T09:09:04.403Z,2.386
2023-04-09T09:11:05.911Z,1.965
2023-04-09T09:15:08.611Z,5.194
2023-04-09T09:21:13.314Z,4.352
2023-04-09T09:27:16.843Z,6.739
2023-04-09T09:31:19.701Z,4.914
2023-04-09T09:37:23.826Z,6.177
2023-04-09T09:41:26.065Z,11.372
2023-04-09T09:43:27.210Z,13.618
2023-04-09T09:47:32.667Z,4.633
2023-04-09T09:51:32.383Z,3.931
2023-04-09T09:53:33.377Z,5.756
2023-04-09T09:57:36.738Z,9.828
2023-04-09T10:03:39.917Z,4.071
2023-04-09T10:07:42.888Z,5.475
2023-04-09T10:09:44.159Z,10.389
2023-04-09T10:13:47.417Z,8.143
2023-04-09T10:19:50.902Z,0
2023-04-09T10:23:53.167Z,2.246
2023-04-09T10:25:54.210Z,8.985
2023-04-09T10:29:56.857Z,10.53
2023-04-09T10:33:59.137Z,3.229
2023-04-09T10:36:00.586Z,3.79
2023-04-09T10:40:02.622Z,4.773
2023-04-09T10:44:05.054Z,7.581
2023-04-09T10:46:06.798Z,6.739
2023-04-09T10:50:09.380Z,5.194
2023-04-09T10:52:12.146Z,1.544
2023-04-09T10:54:11.905Z,2.246
2023-04-09T10:56:13.440Z,3.229
2023-04-09T11:02:17.654Z,8.424
2023-04-09T11:04:18.798Z,1.965
2023-04-09T11:08:22.001Z,2.948
2023-04-09T11:12:24.615Z,9.266
2023-04-09T11:18:28.506Z,5.616
2023-04-09T11:22:31.147Z,6.598
2023-04-09T11:24:32.474Z,5.475
2023-04-09T11:28:35.120Z,8.985
2023-04-09T11:32:39.121Z,13.478
2023-04-09T11:34:40.925Z,9.266
2023-04-09T11:38:44.354Z,6.037
2023-04-09T11:44:47.920Z,5.756
2023-04-09T11:50:51.205Z,6.598
2023-04-09T11:54:54.993Z,6.458
2023-04-09T12:00:59.248Z,2.667
2023-04-09T12:05:01.301Z,6.458
2023-04-09T12:07:02.463Z,3.229
2023-04-09T12:11:05.259Z,6.458
2023-04-09T12:15:07.917Z,3.088
2023-04-09T12:17:09.020Z,0.14
2023-04-09T12:21:11.567Z,4.212
2023-04-09T12:27:15.505Z,12.074
2023-04-09T12:31:19.053Z,10.108
2023-04-09T12:33:20.005Z,4.212
2023-04-09T12:37:22.919Z,3.65
2023-04-09T12:43:26.848Z,7.862
2023-04-09T12:47:29.949Z,7.16
2023-04-09T12:49:30.831Z,10.53
2023-04-09T12:53:34.428Z,3.51
2023-04-09T12:57:37.023Z,6.598
2023-04-09T12:59:38.025Z,7.862
2023-04-09T13:03:40.926Z,7.862
2023-04-09T13:07:43.263Z,3.51
2023-04-09T13:09:44.264Z,5.896
2023-04-09T13:10:28.080Z,6.177
2023-04-09T13:12:29.676Z,8.424
2023-04-09T13:14:31.126Z,12.636
2023-04-09T13:20:35.200Z,7.441
2023-04-09T13:22:36.263Z,9.968
2023-04-09T13:26:38.822Z,9.266
2023-04-09T13:30:41.726Z,6.458
2023-04-09T13:36:46.041Z,7.862
2023-04-09T13:40:48.449Z,7.16
2023-04-09T13:42:50.104Z,7.16
2023-04-09T13:46:52.610Z,9.547
2023-04-09T13:50:55.303Z,8.143
2023-04-09T13:52:57.018Z,4.492
2023-04-09T13:57:00.429Z,5.054
2023-04-09T14:03:04.772Z,8.002
2023-04-09T14:09:09.073Z,8.143
2023-04-09T14:13:12.122Z,6.458
2023-04-09T14:19:15.869Z,7.3
2023-04-09T14:23:18.075Z,2.667
2023-04-09T14:25:19.547Z,8.424
2023-04-09T14:29:22.185Z,6.739
2023-04-09T14:33:24.592Z,3.931
2023-04-09T14:35:25.709Z,4.914
2023-04-09T14:39:29.096Z,1.263
2023-04-09T14:45:32.800Z,2.106
2023-04-09T14:49:35.751Z,6.318
2023-04-09T14:51:36.685Z,3.65
2023-04-09T14:55:39.035Z,4.914
2023-04-09T15:01:43.400Z,2.246
2023-04-09T15:05:45.867Z,6.177
2023-04-09T15:07:47.563Z,2.948
2023-04-09T15:11:49.675Z,5.756
2023-04-09T15:15:52.886Z,6.318
2023-04-09T15:17:54.577Z,6.318
2023-04-09T15:21:56.699Z,9.406
2023-04-09T15:25:58.771Z,8.143
2023-04-09T15:27:59.670Z,7.02
2023-04-09T15:32:02.523Z,3.51
2023-04-09T15:34:04.025Z,7.02
2023-04-09T15:38:07.121Z,6.458
2023-04-09T15:44:10.889Z,6.598
2023-04-09T15:46:12.482Z,3.65
2023-04-09T15:50:15.186Z,6.598
2023-04-09T15:54:17.944Z,7.16
2023-04-09T16:00:21.133Z,3.51
2023-04-09T16:04:23.778Z,3.65
2023-04-09T16:06:24.886Z,2.808
2023-04-09T16:10:27.174Z,4.492
2023-04-09T16:14:29.931Z,6.318
2023-04-09T16:16:39.871Z,9.126
2023-04-09T16:20:33.620Z,9.126
2023-04-09T16:26:38.002Z,9.126
2023-04-09T16:30:40.465Z,5.475
2023-04-09T16:32:42.305Z,3.369
2023-04-09T16:36:46.373Z,7.02
2023-04-09T16:38:47.942Z,6.318
2023-04-09T16:42:50.301Z,3.088
2023-04-09T16:46:53.968Z,2.667
2023-04-09T16:48:55.788Z,4.352
2023-04-09T16:52:58.906Z,3.65
2023-04-09T16:59:04.398Z,6.739
2023-04-09T17:05:07.947Z,7.441
2023-04-09T17:09:10.520Z,5.896
2023-04-09T17:15:14.822Z,7.581
2023-04-09T17:19:17.385Z,3.931
2023-04-09T17:21:18.605Z,12.636
2023-04-09T17:25:20.989Z,7.722
2023-04-09T17:29:23.754Z,5.054
2023-04-09T17:31:25.106Z,3.931
2023-04-09T17:35:28.174Z,4.773
2023-04-09T17:41:32.362Z,4.071
2023-04-09T17:45:35.774Z,5.335
2023-04-09T17:47:37.305Z,4.773
2023-04-09T17:51:39.617Z,3.369
2023-04-09T17:57:44.339Z,2.527
2023-04-09T18:01:47.018Z,3.229
2023-04-09T18:03:48.589Z,3.369
2023-04-09T18:07:51.645Z,3.931
2023-04-09T18:11:53.488Z,2.386
2023-04-09T18:13:55.180Z,2.246
2023-04-09T18:17:58.351Z,3.51
2023-04-09T18:24:02.272Z,3.369
2023-04-09T18:28:05.999Z,1.965
2023-04-09T18:30:07.638Z,1.965
2023-04-09T18:34:10.770Z,2.386
2023-04-09T18:40:15.104Z,2.386
2023-04-09T18:44:17.938Z,0
2023-04-09T18:46:19.595Z,0.28
2023-04-09T18:50:21.477Z,1.965
2023-04-09T18:54:23.729Z,0
2023-04-09T18:56:24.811Z,0.28
2023-04-09T19:00:27.354Z,0.702
2023-04-09T19:04:30.744Z,1.123
2023-04-09T19:06:32.115Z,1.825
2023-04-09T19:10:35.490Z,0.14
2023-04-09T19:12:36.851Z,0
2023-04-09T19:14:38.683Z,0
2023-04-09T19:16:40.103Z,0.842
2023-04-09T19:22:44.175Z,0
2023-04-09T19:24:45.901Z,0
2023-04-09T19:28:48.655Z,0
2023-04-09T19:32:50.813Z,0
2023-04-09T19:38:55.548Z,0
2023-04-09T19:42:58.298Z,0
2023-04-09T19:44:59.306Z,0
2023-04-09T19:49:02.516Z,0
2023-04-09T19:53:05.778Z,0
2023-04-09T19:55:07.570Z,0
2023-04-09T19:55:51.432Z,0
2023-04-09T19:59:54.907Z,0
2023-04-09T20:05:59.717Z,0
2023-04-09T20:10:02.154Z,0
2023-04-09T20:16:05.766Z,0
2023-04-09T20:20:08.757Z,0
2023-04-09T20:22:10.515Z,0
2023-04-09T20:26:12.976Z,0
2023-04-09T20:30:15.098Z,0
2023-04-09T20:32:16.329Z,0
2023-04-09T20:36:18.657Z,0
2023-04-09T20:40:21.334Z,0
2023-04-09T20:42:23.202Z,0
2023-04-09T20:46:26.265Z,0
2023-04-09T20:48:27.915Z,0
2023-04-09T20:52:31.302Z,0
2023-04-09T20:58:35.038Z,0
2023-04-09T21:04:39.588Z,0
2023-04-09T21:08:41.699Z,0
2023-04-09T21:14:46.628Z,1.684
2023-04-09T21:18:49.480Z,2.246
2023-04-09T21:24:54.232Z,1.123
2023-04-09T21:28:56.895Z,0.421
2023-04-09T21:30:58.401Z,0.14
2023-04-09T21:35:01.431Z,0
2023-04-09T21:41:05.767Z,0
2023-04-09T21:47:10.050Z,0
2023-04-09T21:51:13.292Z,0
2023-04-09T21:57:17.463Z,0
2023-04-09T22:01:28.945Z,0
2023-04-09T22:03:22.279Z,0
2023-04-09T22:07:26.068Z,0
2023-04-09T22:11:29.424Z,0
2023-04-09T22:13:30.917Z,0
2023-04-09T22:17:33.482Z,0
2023-04-09T22:23:38.797Z,0
2023-04-09T22:29:43.316Z,0
2023-04-09T22:33:46.045Z,0
2023-04-09T22:39:49.987Z,0
2023-04-09T22:43:53.597Z,0
2023-04-09T22:45:54.882Z,0
2023-04-09T22:49:57.228Z,0
2023-04-09T22:54:00.262Z,0
2023-04-09T22:56:01.655Z,0
2023-04-09T23:00:04.874Z,0
2023-04-09T23:06:09.287Z,0
2023-04-09T23:10:11.581Z,0
2023-04-09T23:12:13.478Z,0
2023-04-09T23:16:16.399Z,0
2023-04-09T23:22:20.353Z,0
2023-04-09T23:26:24.025Z,0
2023-04-09T23:28:25.438Z,0.702
2023-04-09T23:32:28.588Z,0.14
2023-04-09T23:36:32.089Z,0
2023-04-09T23:38:33.552Z,0
2023-04-09T23:42:36.702Z,0
2023-04-09T23:48:40.940Z,0
2023-04-09T23:52:44.302Z,0
2023-04-09T23:54:45.308Z,0
2023-04-09T23:56:46.696Z,0
2023-04-09T23:58:48.537Z,0
